createdAt,value
2023-02-03T00:01:13.564Z,100536.06
2023-02-03T00:04:01.258Z,100509.88
2023-02-03T00:06:49.257Z,100532.63
2023-02-03T00:09:39.914Z,100550.19
2023-02-03T00:12:29.415Z,100540.97
2023-02-03T00:15:17.156Z,100553.94
2023-02-03T00:18:04.966Z,100551.50
2023-02-03T00:20:52.526Z,100549.09
2023-02-03T00:23:40.753Z,100543.19
2023-02-03T00:26:28.917Z,100536.78
2023-02-03T00:29:18.831Z,100575.13
2023-02-03T00:32:06.663Z,100560.16
2023-02-03T00:34:56.971Z,100562.22
2023-02-03T00:37:47.380Z,100581.03
2023-02-03T00:40:35.176Z,100580.22
2023-02-03T00:43:22.939Z,100565.31
2023-02-03T00:46:11.149Z,100577.78
2023-02-03T00:48:58.863Z,100568.09
2023-02-03T00:51:46.561Z,100571.13
2023-02-03T00:54:34.936Z,100556.78
2023-02-03T00:57:23.874Z,100540.41
2023-02-03T01:00:12.224Z,100559.56
2023-02-03T01:03:00.000Z,100564.97
2023-02-03T01:05:47.620Z,100547.78
2023-02-03T01:08:35.399Z,100558.38
2023-02-03T01:11:29.908Z,100560.81
2023-02-03T01:14:18.462Z,100569.50
2023-02-03T01:17:06.129Z,100561.94
2023-02-03T01:19:54.228Z,100579.63
2023-02-03T01:22:42.110Z,100571.06
2023-02-03T01:25:29.943Z,100574.59
2023-02-03T01:28:18.097Z,100554.31
2023-02-03T01:31:10.768Z,100572.03
2023-02-03T01:34:00.367Z,100574.25
2023-02-03T01:36:48.668Z,100564.72
2023-02-03T01:39:36.249Z,100539.50
2023-02-03T01:42:31.442Z,100555.88
2023-02-03T01:45:19.920Z,100557.44
2023-02-03T01:48:08.783Z,100555.72
2023-02-03T01:50:58.179Z,100558.53
2023-02-03T01:53:47.665Z,100526.69
2023-02-03T01:56:39.494Z,100555.13
2023-02-03T01:59:28.668Z,100559.97
2023-02-03T02:02:17.483Z,100580.53
2023-02-03T02:05:21.354Z,100548.84
2023-02-03T02:08:09.875Z,100585.63
2023-02-03T02:11:00.014Z,100590.09
2023-02-03T02:13:54.449Z,100590.63
2023-02-03T02:16:53.449Z,100582.94
2023-02-03T02:20:25.740Z,100584.78
2023-02-03T02:23:42.122Z,100598.63
2023-02-03T02:26:41.431Z,100593.78
2023-02-03T02:33:06.140Z,100593.03
2023-02-03T02:36:11.627Z,100543.41
2023-02-03T02:39:20.079Z,100561.13
2023-02-03T02:42:30.192Z,100600.22
2023-02-03T02:45:50.736Z,100585.13
2023-02-03T02:48:47.641Z,100594.19
2023-02-03T02:51:38.743Z,100593.88
2023-02-03T02:54:30.066Z,100570.47
2023-02-03T02:57:20.456Z,100591.78
2023-02-03T03:00:14.317Z,100610.88
2023-02-03T03:03:23.055Z,100596.19
2023-02-03T03:06:39.280Z,100612.31
2023-02-03T03:09:40.231Z,100623.50
2023-02-03T03:12:36.990Z,100629.09
2023-02-03T03:15:29.551Z,100628.69
2023-02-03T03:18:28.024Z,100639.28
2023-02-03T03:21:25.728Z,100642.03
2023-02-03T03:24:20.456Z,100639.59
2023-02-03T03:27:21.057Z,100630.28
2023-02-03T03:30:28.173Z,100647.38
2023-02-03T03:33:27.355Z,100622.81
2023-02-03T03:36:20.116Z,100642.03
2023-02-03T03:39:16.768Z,100654.47
2023-02-03T03:42:13.354Z,100652.84
2023-02-03T03:45:17.328Z,100651.31
2023-02-03T03:48:27.897Z,100657.13
2023-02-03T03:51:22.975Z,100663.47
2023-02-03T03:54:15.810Z,100663.34
2023-02-03T03:57:27.432Z,100670.31
2023-02-03T04:00:18.259Z,100646.69
2023-02-03T04:03:12.282Z,100673.78
2023-02-03T04:06:00.035Z,100682.28
2023-02-03T04:08:49.937Z,100669.97
2023-02-03T04:11:56.271Z,100682.88
2023-02-03T04:14:43.915Z,100673.72
2023-02-03T04:17:36.411Z,100677.50
2023-02-03T04:20:25.816Z,100686.66
2023-02-03T04:23:16.080Z,100691.66
2023-02-03T04:26:03.804Z,100698.81
2023-02-03T04:28:51.572Z,100692.00
2023-02-03T04:31:41.757Z,100703.47
2023-02-03T04:34:29.565Z,100699.44
2023-02-03T04:37:17.267Z,100702.47
2023-02-03T04:40:05.882Z,100721.44
2023-02-03T04:42:53.518Z,100718.88
2023-02-03T04:45:41.671Z,100728.22
2023-02-03T04:48:29.417Z,100723.94
2023-02-03T04:51:17.224Z,100730.75
2023-02-03T04:54:04.933Z,100741.66
2023-02-03T04:56:55.498Z,100730.56
2023-02-03T04:59:43.100Z,100693.81
2023-02-03T05:02:30.804Z,100760.34
2023-02-03T05:05:18.566Z,100755.72
2023-02-03T05:08:06.579Z,100767.69
2023-02-03T05:10:55.485Z,100766.13
2023-02-03T05:13:53.024Z,100764.81
2023-02-03T05:16:41.390Z,100757.22
2023-02-03T05:19:31.997Z,100772.22
2023-02-03T05:22:19.725Z,100774.19
2023-02-03T05:25:08.050Z,100764.22
2023-02-03T05:27:55.786Z,100781.16
2023-02-03T05:30:43.702Z,100755.72
2023-02-03T05:33:31.498Z,100788.31
2023-02-03T05:36:19.380Z,100785.63
2023-02-03T05:39:17.455Z,100810.97
2023-02-03T05:42:05.401Z,100816.06
2023-02-03T05:44:52.935Z,100799.88
2023-02-03T05:47:41.656Z,100820.41
2023-02-03T05:50:33.653Z,100824.28
2023-02-03T05:53:30.786Z,100827.31
2023-02-03T05:56:18.476Z,100821.09
2023-02-03T05:59:10.288Z,100833.63
2023-02-03T06:01:57.985Z,100827.59
2023-02-03T06:04:45.874Z,100846.44
2023-02-03T06:07:33.500Z,100784.25
2023-02-03T06:10:22.581Z,100852.16
2023-02-03T06:13:15.442Z,100839.06
2023-02-03T06:16:03.269Z,100845.31
2023-02-03T06:18:52.819Z,100847.22
2023-02-03T06:21:40.634Z,100815.22
2023-02-03T06:24:28.362Z,100854.53
2023-02-03T06:27:16.827Z,100849.06
2023-02-03T06:30:05.193Z,100850.69
2023-02-03T06:32:52.954Z,100847.16
2023-02-03T06:35:40.632Z,100862.41
2023-02-03T06:38:28.483Z,100857.16
2023-02-03T06:41:16.213Z,100854.63
2023-02-03T06:44:04.197Z,100829.91
2023-02-03T06:46:52.212Z,100858.53
2023-02-03T06:49:42.588Z,100869.06
2023-02-03T06:52:30.154Z,100867.91
2023-02-03T06:55:20.056Z,100865.00
2023-02-03T06:58:07.734Z,100881.25
2023-02-03T07:00:58.675Z,100885.28
2023-02-03T07:03:48.996Z,100896.09
2023-02-03T07:06:36.774Z,100898.41
2023-02-03T07:09:24.430Z,100885.19
2023-02-03T07:12:12.305Z,100891.13
2023-02-03T07:14:59.980Z,100899.19
2023-02-03T07:17:54.983Z,100883.25
2023-02-03T07:20:42.811Z,100902.56
2023-02-03T07:23:39.716Z,100898.34
2023-02-03T07:26:27.512Z,100899.16
2023-02-03T07:29:15.419Z,100903.31
2023-02-03T07:32:03.557Z,100905.84
2023-02-03T07:34:51.419Z,100912.03
2023-02-03T07:37:39.036Z,100906.22
2023-02-03T07:40:27.014Z,100897.06
2023-02-03T07:43:18.798Z,100910.25
2023-02-03T07:46:06.606Z,100876.66
2023-02-03T07:48:54.384Z,100907.22
2023-02-03T07:51:48.303Z,100895.25
2023-02-03T07:54:35.964Z,100905.28
2023-02-03T07:57:23.828Z,100881.22
2023-02-03T08:00:14.326Z,100903.00
2023-02-03T08:03:02.319Z,100901.47
2023-02-03T08:05:50.270Z,100893.59
2023-02-03T08:11:39.498Z,100902.03
2023-02-03T08:14:27.285Z,100909.06
2023-02-03T08:17:15.238Z,100902.69
2023-02-03T08:20:05.852Z,100894.00
2023-02-03T08:22:56.472Z,100907.41
2023-02-03T08:25:44.358Z,100920.84
2023-02-03T08:28:32.549Z,100925.53
2023-02-03T08:31:23.003Z,100916.56
2023-02-03T08:34:10.773Z,100930.53
2023-02-03T08:36:58.530Z,100928.38
2023-02-03T08:39:46.620Z,100928.75
2023-02-03T08:42:36.259Z,100939.16
2023-02-03T08:45:24.169Z,100942.72
2023-02-03T08:48:15.035Z,100945.06
2023-02-03T08:51:09.557Z,100939.84
2023-02-03T08:53:58.386Z,100926.78
2023-02-03T08:56:46.344Z,100950.53
2023-02-03T08:59:40.030Z,100936.03
2023-02-03T09:02:27.935Z,100924.50
2023-02-03T09:05:18.951Z,100937.44
2023-02-03T09:08:06.689Z,100921.03
2023-02-03T09:10:55.753Z,100929.94
2023-02-03T09:13:46.205Z,100913.28
2023-02-03T09:16:36.124Z,100900.84
2023-02-03T09:19:23.856Z,100931.25
2023-02-03T09:22:11.813Z,100937.28
2023-02-03T09:24:59.712Z,100871.84
2023-02-03T09:27:47.492Z,100933.34
2023-02-03T09:30:35.590Z,100918.00
2023-02-03T09:33:23.947Z,100914.13
2023-02-03T09:36:13.849Z,100933.88
2023-02-03T09:39:01.864Z,100891.88
2023-02-03T09:42:02.901Z,100926.88
2023-02-03T09:45:07.460Z,100893.22
2023-02-03T09:48:07.641Z,100912.50
2023-02-03T09:50:58.763Z,100917.00
2023-02-03T09:53:58.183Z,100886.75
2023-02-03T09:56:52.955Z,100917.38
2023-02-03T09:59:43.178Z,100902.13
2023-02-03T10:02:51.227Z,100881.38
2023-02-03T10:06:03.808Z,100907.78
2023-02-03T10:09:09.111Z,100911.69
2023-02-03T10:12:33.964Z,100917.00
2023-02-03T10:15:25.328Z,100910.88
2023-02-03T10:18:38.053Z,100913.28
2023-02-03T10:21:47.571Z,100894.19
2023-02-03T10:24:42.527Z,100877.50
2023-02-03T10:27:33.319Z,100905.75
2023-02-03T10:30:32.488Z,100878.47
2023-02-03T10:33:25.342Z,100892.72
2023-02-03T10:36:23.987Z,100878.81
2023-02-03T10:39:17.370Z,100870.56
2023-02-03T10:42:09.563Z,100874.69
2023-02-03T10:44:59.266Z,100882.03
2023-02-03T10:47:57.412Z,100875.22
2023-02-03T10:54:30.207Z,100867.00
2023-02-03T10:57:18.270Z,100838.34
2023-02-03T11:00:17.178Z,100845.94
2023-02-03T11:03:13.332Z,100858.25
2023-02-03T11:06:14.352Z,100861.50
2023-02-03T11:09:03.368Z,100853.88
2023-02-03T11:12:23.214Z,100866.19
2023-02-03T11:15:17.484Z,100858.06
2023-02-03T11:18:05.221Z,100845.63
2023-02-03T11:20:53.661Z,100853.69
2023-02-03T11:24:07.849Z,100853.41
2023-02-03T11:27:05.501Z,100759.88
2023-02-03T11:30:12.692Z,100836.41
2023-02-03T11:33:24.706Z,100818.75
2023-02-03T11:36:14.795Z,100839.59
2023-02-03T11:39:19.919Z,100844.00
2023-02-03T11:42:23.313Z,100822.78
2023-02-03T11:45:33.301Z,100821.69
2023-02-03T11:48:35.734Z,100835.59
2023-02-03T11:51:39.238Z,100835.44
2023-02-03T11:54:29.595Z,100804.53
2023-02-03T11:57:36.133Z,100815.03
2023-02-03T12:00:53.585Z,100816.47
2023-02-03T12:04:16.906Z,100836.25
2023-02-03T12:07:43.795Z,100830.75
2023-02-03T12:11:17.121Z,100830.09
2023-02-03T12:14:28.996Z,100827.00
2023-02-03T12:17:47.112Z,100812.28
2023-02-03T12:21:14.240Z,100825.91
2023-02-03T12:24:19.884Z,100819.88
2023-02-03T12:27:30.282Z,100826.16
2023-02-03T12:30:27.140Z,100821.03
2023-02-03T12:33:52.242Z,100832.56
2023-02-03T12:37:00.007Z,100807.16
2023-02-03T12:39:53.353Z,100802.44
2023-02-03T12:42:50.709Z,100808.38
2023-02-03T12:45:55.994Z,100806.44
2023-02-03T12:49:12.313Z,100797.81
2023-02-03T12:52:06.268Z,100809.06
2023-02-03T12:54:56.927Z,100779.69
2023-02-03T12:58:14.802Z,100810.44
2023-02-03T13:01:21.959Z,100803.16
2023-02-03T13:04:30.331Z,100786.72
2023-02-03T13:07:50.769Z,100788.38
2023-02-03T13:10:53.411Z,100775.41
2023-02-03T13:14:06.199Z,100778.88
2023-02-03T13:16:55.740Z,100778.38
2023-02-03T13:20:27.577Z,100765.97
2023-02-03T13:23:18.987Z,100770.66
2023-02-03T13:26:34.016Z,100769.31
2023-02-03T13:29:24.800Z,100775.75
2023-02-03T13:32:37.873Z,100768.97
2023-02-03T13:35:42.736Z,100748.31
2023-02-03T13:38:57.100Z,100768.75
2023-02-03T13:41:52.008Z,100745.09
2023-02-03T13:44:43.032Z,100758.22
2023-02-03T13:47:19.346Z,100779.69
2023-02-03T13:50:18.527Z,100776.72
2023-02-03T13:53:14.927Z,100773.75
2023-02-03T13:56:05.167Z,100779.63
2023-02-03T13:59:06.856Z,100777.97
2023-02-03T14:02:31.027Z,100770.00
2023-02-03T14:05:42.473Z,100758.38
2023-02-03T14:08:30.332Z,100775.53
2023-02-03T14:11:36.454Z,100763.44
2023-02-03T14:14:24.780Z,100729.25
2023-02-03T14:17:34.227Z,100755.53
2023-02-03T14:20:27.997Z,100750.34
2023-02-03T14:23:21.069Z,100756.59
2023-02-03T14:26:33.996Z,100755.00
2023-02-03T14:29:33.581Z,100743.28
2023-02-03T14:32:21.553Z,100755.25
2023-02-03T14:35:36.926Z,100748.38
2023-02-03T14:38:33.441Z,100751.84
2023-02-03T14:41:41.991Z,100745.97
2023-02-03T14:44:38.512Z,100745.09
2023-02-03T14:47:37.962Z,100742.56
2023-02-03T14:50:44.270Z,100736.28
2023-02-03T14:54:01.023Z,100731.84
2023-02-03T14:57:19.976Z,100735.59
2023-02-03T15:00:35.319Z,100729.34
2023-02-03T15:03:25.811Z,100729.31
2023-02-03T15:06:44.149Z,100724.66
2023-02-03T15:09:48.976Z,100723.66
2023-02-03T15:12:42.454Z,100717.13
2023-02-03T15:15:36.482Z,100712.66
2023-02-03T15:18:31.191Z,100710.13
2023-02-03T15:21:21.053Z,100706.97
2023-02-03T15:24:19.303Z,100698.75
2023-02-03T15:27:22.570Z,100702.16
2023-02-03T15:30:27.809Z,100691.81
2023-02-03T15:33:21.570Z,100698.81
2023-02-03T15:36:20.980Z,100687.00
2023-02-03T15:39:11.761Z,100685.25
2023-02-03T15:42:00.264Z,100688.75
2023-02-03T15:45:11.477Z,100626.44
2023-02-03T15:48:12.569Z,100681.25
2023-02-03T15:51:11.896Z,100675.66
2023-02-03T15:54:12.885Z,100672.25
2023-02-03T15:57:05.783Z,100675.28
2023-02-03T15:59:59.765Z,100667.69
2023-02-03T16:02:48.827Z,100667.97
2023-02-03T16:05:37.610Z,100664.56
2023-02-03T16:08:46.450Z,100662.16
2023-02-03T16:11:38.709Z,100641.50
2023-02-03T16:14:34.092Z,100647.34
2023-02-03T16:17:33.238Z,100635.63
2023-02-03T16:20:32.541Z,100632.09
2023-02-03T16:23:29.881Z,100618.44
2023-02-03T16:26:19.832Z,100613.66
2023-02-03T16:29:30.325Z,100606.44
2023-02-03T16:32:37.764Z,100595.53
2023-02-03T16:35:44.443Z,100588.91
2023-02-03T16:38:50.677Z,100590.75
2023-02-03T16:41:57.238Z,100582.56
2023-02-03T16:45:04.430Z,100577.25
2023-02-03T16:48:10.471Z,100573.16
2023-02-03T16:51:10.905Z,100559.94
2023-02-03T16:53:58.645Z,100565.00
2023-02-03T16:56:46.397Z,100553.66
2023-02-03T16:59:34.644Z,100563.03
2023-02-03T17:02:22.473Z,100562.06
2023-02-03T17:05:13.116Z,100552.53
2023-02-03T17:08:00.877Z,100528.00
2023-02-03T17:10:49.616Z,100548.03
2023-02-03T17:13:40.582Z,100541.34
2023-02-03T17:16:28.759Z,100536.84
2023-02-03T17:19:16.736Z,100507.38
2023-02-03T17:22:04.413Z,100519.44
2023-02-03T17:24:52.237Z,100504.16
2023-02-03T17:27:40.017Z,100494.28
2023-02-03T17:30:34.264Z,100497.63
2023-02-03T17:33:21.841Z,100492.38
2023-02-03T17:36:20.252Z,100485.59
2023-02-03T17:54:36.166Z,100460.69
2023-02-03T17:57:23.760Z,100477.72
2023-02-03T18:00:12.368Z,100438.34
2023-02-03T18:03:00.005Z,100455.41
2023-02-03T18:05:51.895Z,100470.44
2023-02-03T18:08:40.327Z,100456.69
2023-02-03T18:11:29.876Z,100425.75
2023-02-03T18:14:18.335Z,100433.97
2023-02-03T18:17:06.110Z,100447.56
2023-02-03T18:19:56.617Z,100448.06
2023-02-03T18:22:45.181Z,100426.75
2023-02-03T18:25:35.847Z,100429.22
2023-02-03T18:28:23.885Z,100436.69
2023-02-03T18:31:15.457Z,100411.75
2023-02-03T18:34:03.998Z,100401.50
2023-02-03T18:36:51.596Z,100421.88
2023-02-03T18:39:39.518Z,100405.88
2023-02-03T18:42:27.172Z,100420.19
2023-02-03T18:45:14.859Z,100419.97
2023-02-03T18:48:06.778Z,100378.44
2023-02-03T18:50:54.611Z,100402.59
2023-02-03T18:53:42.473Z,100398.72
2023-02-03T18:56:39.451Z,100393.03
2023-02-03T18:59:27.228Z,100366.16
2023-02-03T19:02:14.929Z,100394.97
2023-02-03T19:05:02.644Z,100374.78
2023-02-03T19:07:50.491Z,100365.50
2023-02-03T19:10:38.111Z,100367.72
2023-02-03T19:13:25.899Z,100366.59
2023-02-03T19:16:17.014Z,100360.09
2023-02-03T19:19:04.800Z,100355.16
2023-02-03T19:21:57.726Z,100354.53
2023-02-03T19:24:46.646Z,100323.75
2023-02-03T19:27:34.421Z,100344.22
2023-02-03T19:30:22.305Z,100339.44
2023-02-03T19:33:09.979Z,100330.66
2023-02-03T19:35:57.782Z,100336.91
2023-02-03T19:38:45.488Z,100315.06
2023-02-03T19:41:36.686Z,100321.97
2023-02-03T19:44:25.006Z,100330.41
2023-02-03T19:47:12.821Z,100293.06
2023-02-03T19:50:00.622Z,100319.84
2023-02-03T19:52:49.360Z,100299.16
2023-02-03T19:55:38.796Z,100296.81
2023-02-03T19:58:26.537Z,100318.44
2023-02-03T20:01:14.300Z,100313.44
2023-02-03T20:04:02.041Z,100310.72
2023-02-03T20:06:49.742Z,100318.00
2023-02-03T20:09:37.607Z,100309.75
2023-02-03T20:12:25.283Z,100296.66
2023-02-03T20:15:13.224Z,100293.97
2023-02-03T20:18:00.799Z,100279.75
2023-02-03T20:20:53.372Z,100281.78
2023-02-03T20:23:41.013Z,100269.63
2023-02-03T20:26:28.772Z,100267.56
2023-02-03T20:29:16.404Z,100258.59
2023-02-03T20:32:10.017Z,100273.72
2023-02-03T20:35:00.092Z,100249.75
2023-02-03T20:37:47.878Z,100259.13
2023-02-03T20:40:35.623Z,100253.41
2023-02-03T20:43:26.456Z,100254.56
2023-02-03T20:46:18.566Z,100249.94
2023-02-03T20:49:10.836Z,100251.50
2023-02-03T20:51:58.431Z,100244.31
2023-02-03T20:54:46.533Z,100219.88
2023-02-03T20:57:34.153Z,100243.00
2023-02-03T21:00:26.517Z,100238.25
2023-02-03T21:03:35.270Z,100236.78
2023-02-03T21:06:25.900Z,100219.41
2023-02-03T21:09:16.303Z,100222.84
2023-02-03T21:12:12.391Z,100206.56
2023-02-03T21:15:00.171Z,100211.84
2023-02-03T21:17:47.942Z,100231.25
2023-02-03T21:20:37.616Z,100215.22
2023-02-03T21:23:55.095Z,100210.25
2023-02-03T21:26:51.312Z,100211.81
2023-02-03T21:29:55.529Z,100185.63
2023-02-03T21:32:44.229Z,100203.06
2023-02-03T21:35:37.406Z,100187.63
2023-02-03T21:38:32.514Z,100199.28
2023-02-03T21:41:22.611Z,100195.91
2023-02-03T21:44:32.687Z,100204.41
2023-02-03T21:47:20.411Z,100176.88
2023-02-03T21:50:36.851Z,100201.75
2023-02-03T21:53:27.610Z,100190.81
2023-02-03T21:56:20.940Z,100194.19
2023-02-03T21:59:21.320Z,100184.34
2023-02-03T22:02:38.267Z,100194.31
2023-02-03T22:05:25.960Z,100181.28
2023-02-03T22:08:25.912Z,100183.69
2023-02-03T22:11:16.436Z,100158.53
2023-02-03T22:14:06.450Z,100178.66
2023-02-03T22:16:54.291Z,100131.44
2023-02-03T22:19:42.021Z,100155.28
2023-02-03T22:22:31.170Z,100170.91
2023-02-03T22:25:18.714Z,100172.34
2023-02-03T22:28:06.746Z,100141.69
2023-02-03T22:30:54.465Z,100155.03
2023-02-03T22:33:44.805Z,100142.03
2023-02-03T22:36:32.364Z,100131.19
2023-02-03T22:39:20.167Z,100137.81
2023-02-03T22:42:07.771Z,100114.47
2023-02-03T22:44:55.772Z,100129.44
2023-02-03T22:47:43.441Z,100127.06
2023-02-03T22:50:35.802Z,100084.31
2023-02-03T22:53:24.545Z,100099.03
2023-02-03T22:56:12.281Z,100097.06
2023-02-03T22:58:59.849Z,100095.34
2023-02-03T23:01:47.665Z,100089.53
2023-02-03T23:04:35.284Z,100086.16
2023-02-03T23:07:23.296Z,100093.88
2023-02-03T23:10:16.566Z,100042.53
2023-02-03T23:13:05.497Z,100055.09
2023-02-03T23:15:53.144Z,100066.50
2023-02-03T23:18:48.320Z,100036.00
2023-02-03T23:21:38.029Z,100049.53
2023-02-03T23:24:28.896Z,100053.41
2023-02-03T23:27:16.612Z,100043.34
2023-02-03T23:30:06.252Z,100040.06
2023-02-03T23:32:53.936Z,100039.03
2023-02-03T23:35:47.437Z,100019.38
2023-02-03T23:38:36.408Z,100014.47
2023-02-03T23:41:24.330Z,99980.94
2023-02-03T23:44:12.946Z,100003.63
2023-02-03T23:47:00.710Z,99999.94
2023-02-03T23:49:50.385Z,99969.19
2023-02-03T23:52:38.135Z,99972.56
2023-02-03T23:55:28.631Z,99964.84
2023-02-03T23:58:16.395Z,99973.34
